sensor_id;sensor_type;location;lat;lon;timestamp;P1;durP1;ratioP1;P2;durP2;ratioP2
69910;SDS011;63555;49.920;17.868;2024-02-14T00:03:38;18.27;;;7.90;;
69910;SDS011;63555;49.920;17.868;2024-02-14T00:08:39;18.93;;;8.63;;
69910;SDS011;63555;49.920;17.868;2024-02-14T00:13:39;25.03;;;8.80;;
69910;SDS011;63555;49.920;17.868;2024-02-14T00:18:39;23.30;;;8.47;;
69910;SDS011;63555;49.920;17.868;2024-02-14T00:23:40;24.37;;;9.47;;
69910;SDS011;63555;49.920;17.868;2024-02-14T00:28:40;22.47;;;9.53;;
69910;SDS011;63555;49.920;17.868;2024-02-14T00:33:40;23.27;;;8.63;;
69910;SDS011;63555;49.920;17.868;2024-02-14T00:38:41;24.60;;;9.40;;
69910;SDS011;63555;49.920;17.868;2024-02-14T00:43:41;21.10;;;9.57;;
69910;SDS011;63555;49.920;17.868;2024-02-14T00:48:41;20.17;;;8.37;;
69910;SDS011;63555;49.920;17.868;2024-02-14T00:53:42;18.53;;;8.30;;
69910;SDS011;63555;49.920;17.868;2024-02-14T00:58:43;18.33;;;8.20;;
69910;SDS011;63555;49.920;17.868;2024-02-14T01:03:43;21.30;;;7.80;;
69910;SDS011;63555;49.920;17.868;2024-02-14T01:08:44;23.23;;;8.30;;
69910;SDS011;63555;49.920;17.868;2024-02-14T01:13:44;20.60;;;7.80;;
69910;SDS011;63555;49.920;17.868;2024-02-14T01:18:45;22.93;;;7.43;;
69910;SDS011;63555;49.920;17.868;2024-02-14T01:23:45;22.30;;;8.57;;
69910;SDS011;63555;49.920;17.868;2024-02-14T01:28:45;17.97;;;6.93;;
69910;SDS011;63555;49.920;17.868;2024-02-14T01:33:46;22.40;;;8.43;;
69910;SDS011;63555;49.920;17.868;2024-02-14T01:38:46;22.20;;;7.43;;
69910;SDS011;63555;49.920;17.868;2024-02-14T01:43:47;19.37;;;7.57;;
69910;SDS011;63555;49.920;17.868;2024-02-14T01:48:47;24.20;;;7.83;;
69910;SDS011;63555;49.920;17.868;2024-02-14T01:53:48;18.90;;;7.90;;
69910;SDS011;63555;49.920;17.868;2024-02-14T01:58:48;23.00;;;7.33;;
69910;SDS011;63555;49.920;17.868;2024-02-14T02:03:49;14.65;;;6.47;;
69910;SDS011;63555;49.920;17.868;2024-02-14T02:08:49;14.13;;;6.57;;
69910;SDS011;63555;49.920;17.868;2024-02-14T02:13:50;18.13;;;6.80;;
69910;SDS011;63555;49.920;17.868;2024-02-14T02:18:50;17.97;;;6.83;;
69910;SDS011;63555;49.920;17.868;2024-02-14T02:23:50;16.93;;;6.67;;
69910;SDS011;63555;49.920;17.868;2024-02-14T02:28:51;19.10;;;8.40;;
69910;SDS011;63555;49.920;17.868;2024-02-14T02:33:51;26.87;;;10.60;;
69910;SDS011;63555;49.920;17.868;2024-02-14T02:38:52;22.13;;;9.43;;
69910;SDS011;63555;49.920;17.868;2024-02-14T02:43:53;20.67;;;7.60;;
69910;SDS011;63555;49.920;17.868;2024-02-14T02:48:54;23.13;;;7.20;;
69910;SDS011;63555;49.920;17.868;2024-02-14T02:53:54;20.20;;;7.17;;
69910;SDS011;63555;49.920;17.868;2024-02-14T02:58:55;21.33;;;7.20;;
69910;SDS011;63555;49.920;17.868;2024-02-14T03:03:56;17.93;;;6.87;;
69910;SDS011;63555;49.920;17.868;2024-02-14T03:08:56;21.83;;;7.33;;
69910;SDS011;63555;49.920;17.868;2024-02-14T03:13:57;15.63;;;6.40;;
69910;SDS011;63555;49.920;17.868;2024-02-14T03:18:57;19.23;;;7.13;;
69910;SDS011;63555;49.920;17.868;2024-02-14T03:23:58;19.08;;;7.15;;
69910;SDS011;63555;49.920;17.868;2024-02-14T03:29:02;20.20;;;7.00;;
69910;SDS011;63555;49.920;17.868;2024-02-14T03:34:06;12.52;;;5.40;;
69910;SDS011;63555;49.920;17.868;2024-02-14T03:39:06;12.90;;;5.20;;
69910;SDS011;63555;49.920;17.868;2024-02-14T03:44:07;16.93;;;6.40;;
69910;SDS011;63555;49.920;17.868;2024-02-14T03:49:08;13.63;;;6.47;;
69910;SDS011;63555;49.920;17.868;2024-02-14T03:54:09;16.63;;;6.83;;
69910;SDS011;63555;49.920;17.868;2024-02-14T03:59:09;11.67;;;5.50;;
69910;SDS011;63555;49.920;17.868;2024-02-14T04:04:11;12.97;;;5.70;;
69910;SDS011;63555;49.920;17.868;2024-02-14T04:09:11;15.37;;;5.60;;
69910;SDS011;63555;49.920;17.868;2024-02-14T04:14:12;15.17;;;5.43;;
69910;SDS011;63555;49.920;17.868;2024-02-14T04:19:12;14.53;;;4.97;;
69910;SDS011;63555;49.920;17.868;2024-02-14T04:24:13;16.37;;;5.03;;
69910;SDS011;63555;49.920;17.868;2024-02-14T04:29:13;13.50;;;4.10;;
69910;SDS011;63555;49.920;17.868;2024-02-14T04:34:13;8.60;;;4.00;;
69910;SDS011;63555;49.920;17.868;2024-02-14T04:39:14;13.95;;;5.25;;
69910;SDS011;63555;49.920;17.868;2024-02-14T04:44:14;8.03;;;3.60;;
69910;SDS011;63555;49.920;17.868;2024-02-14T04:49:14;11.20;;;4.03;;
69910;SDS011;63555;49.920;17.868;2024-02-14T04:54:15;11.97;;;4.73;;
69910;SDS011;63555;49.920;17.868;2024-02-14T04:59:16;12.18;;;5.10;;
69910;SDS011;63555;49.920;17.868;2024-02-14T05:04:16;13.70;;;4.87;;
69910;SDS011;63555;49.920;17.868;2024-02-14T05:09:18;11.00;;;3.90;;
69910;SDS011;63555;49.920;17.868;2024-02-14T05:14:18;10.60;;;5.45;;
69910;SDS011;63555;49.920;17.868;2024-02-14T05:19:19;13.27;;;4.63;;
69910;SDS011;63555;49.920;17.868;2024-02-14T05:24:21;14.07;;;4.50;;
69910;SDS011;63555;49.920;17.868;2024-02-14T05:29:22;11.37;;;4.77;;
69910;SDS011;63555;49.920;17.868;2024-02-14T05:34:22;15.33;;;5.30;;
69910;SDS011;63555;49.920;17.868;2024-02-14T05:39:24;8.82;;;4.63;;
69910;SDS011;63555;49.920;17.868;2024-02-14T05:44:24;11.50;;;4.77;;
69910;SDS011;63555;49.920;17.868;2024-02-14T05:49:27;15.87;;;4.90;;
69910;SDS011;63555;49.920;17.868;2024-02-14T05:54:27;10.83;;;4.90;;
69910;SDS011;63555;49.920;17.868;2024-02-14T05:59:28;11.57;;;4.90;;
69910;SDS011;63555;49.920;17.868;2024-02-14T06:04:28;15.83;;;5.60;;
69910;SDS011;63555;49.920;17.868;2024-02-14T06:09:28;15.80;;;6.37;;
69910;SDS011;63555;49.920;17.868;2024-02-14T06:14:29;13.83;;;6.17;;
69910;SDS011;63555;49.920;17.868;2024-02-14T06:19:30;17.23;;;7.30;;
69910;SDS011;63555;49.920;17.868;2024-02-14T06:24:32;14.33;;;6.20;;
69910;SDS011;63555;49.920;17.868;2024-02-14T06:29:32;13.40;;;5.60;;
69910;SDS011;63555;49.920;17.868;2024-02-14T06:34:32;15.27;;;6.17;;
69910;SDS011;63555;49.920;17.868;2024-02-14T06:39:33;19.27;;;7.03;;
69910;SDS011;63555;49.920;17.868;2024-02-14T06:44:33;18.37;;;6.93;;
69910;SDS011;63555;49.920;17.868;2024-02-14T06:49:33;17.80;;;6.80;;
69910;SDS011;63555;49.920;17.868;2024-02-14T06:54:34;15.43;;;5.60;;
69910;SDS011;63555;49.920;17.868;2024-02-14T06:59:34;15.13;;;5.93;;
69910;SDS011;63555;49.920;17.868;2024-02-14T07:04:36;12.38;;;5.68;;
69910;SDS011;63555;49.920;17.868;2024-02-14T07:09:37;14.50;;;6.20;;
69910;SDS011;63555;49.920;17.868;2024-02-14T07:14:38;23.08;;;7.97;;
69910;SDS011;63555;49.920;17.868;2024-02-14T07:19:39;22.37;;;8.90;;
69910;SDS011;63555;49.920;17.868;2024-02-14T07:24:40;22.88;;;8.70;;
69910;SDS011;63555;49.920;17.868;2024-02-14T07:29:41;23.63;;;9.53;;
69910;SDS011;63555;49.920;17.868;2024-02-14T07:34:41;20.07;;;8.27;;
69910;SDS011;63555;49.920;17.868;2024-02-14T07:39:41;20.17;;;9.83;;
69910;SDS011;63555;49.920;17.868;2024-02-14T07:44:42;20.63;;;10.00;;
69910;SDS011;63555;49.920;17.868;2024-02-14T07:49:42;22.17;;;9.77;;
69910;SDS011;63555;49.920;17.868;2024-02-14T07:54:43;23.30;;;10.27;;
69910;SDS011;63555;49.920;17.868;2024-02-14T07:59:43;30.10;;;12.53;;
69910;SDS011;63555;49.920;17.868;2024-02-14T08:04:43;21.83;;;9.97;;
69910;SDS011;63555;49.920;17.868;2024-02-14T08:09:44;9.17;;;4.33;;
69910;SDS011;63555;49.920;17.868;2024-02-14T08:14:44;15.87;;;6.30;;
69910;SDS011;63555;49.920;17.868;2024-02-14T08:19:44;22.20;;;7.23;;
69910;SDS011;63555;49.920;17.868;2024-02-14T08:24:45;12.03;;;4.87;;
69910;SDS011;63555;49.920;17.868;2024-02-14T08:29:45;19.47;;;6.90;;
69910;SDS011;63555;49.920;17.868;2024-02-14T08:34:46;16.03;;;6.10;;
69910;SDS011;63555;49.920;17.868;2024-02-14T08:39:47;16.70;;;7.85;;
69910;SDS011;63555;49.920;17.868;2024-02-14T08:44:48;14.83;;;6.90;;
69910;SDS011;63555;49.920;17.868;2024-02-14T08:49:48;23.63;;;7.43;;
69910;SDS011;63555;49.920;17.868;2024-02-14T08:54:49;11.37;;;5.97;;
69910;SDS011;63555;49.920;17.868;2024-02-14T08:59:49;23.73;;;11.70;;
69910;SDS011;63555;49.920;17.868;2024-02-14T09:04:50;17.57;;;7.73;;
69910;SDS011;63555;49.920;17.868;2024-02-14T09:09:51;15.05;;;6.68;;
69910;SDS011;63555;49.920;17.868;2024-02-14T09:14:51;12.00;;;4.63;;
69910;SDS011;63555;49.920;17.868;2024-02-14T09:19:51;13.17;;;4.60;;
69910;SDS011;63555;49.920;17.868;2024-02-14T09:24:52;21.63;;;8.50;;
69910;SDS011;63555;49.920;17.868;2024-02-14T09:29:52;8.73;;;4.00;;
69910;SDS011;63555;49.920;17.868;2024-02-14T09:34:52;13.53;;;4.60;;
69910;SDS011;63555;49.920;17.868;2024-02-14T09:39:53;7.00;;;3.10;;
69910;SDS011;63555;49.920;17.868;2024-02-14T09:44:53;5.17;;;2.57;;
69910;SDS011;63555;49.920;17.868;2024-02-14T09:50:00;6.50;;;2.45;;
69910;SDS011;63555;49.920;17.868;2024-02-14T09:55:03;6.10;;;2.30;;
69910;SDS011;63555;49.920;17.868;2024-02-14T10:00:05;5.28;;;2.10;;
69910;SDS011;63555;49.920;17.868;2024-02-14T10:05:06;7.43;;;1.90;;
69910;SDS011;63555;49.920;17.868;2024-02-14T10:10:07;5.32;;;1.90;;
69910;SDS011;63555;49.920;17.868;2024-02-14T10:15:08;5.43;;;1.90;;
69910;SDS011;63555;49.920;17.868;2024-02-14T10:20:09;5.95;;;1.90;;
69910;SDS011;63555;49.920;17.868;2024-02-14T10:25:10;5.50;;;2.25;;
69910;SDS011;63555;49.920;17.868;2024-02-14T10:30:11;5.93;;;2.08;;
69910;SDS011;63555;49.920;17.868;2024-02-14T10:35:12;4.67;;;1.90;;
69910;SDS011;63555;49.920;17.868;2024-02-14T10:40:13;5.33;;;1.90;;
69910;SDS011;63555;49.920;17.868;2024-02-14T10:45:13;3.83;;;1.60;;
69910;SDS011;63555;49.920;17.868;2024-02-14T10:50:14;6.33;;;1.70;;
69910;SDS011;63555;49.920;17.868;2024-02-14T10:55:15;6.90;;;2.20;;
69910;SDS011;63555;49.920;17.868;2024-02-14T11:00:17;3.65;;;1.70;;
69910;SDS011;63555;49.920;17.868;2024-02-14T11:05:19;5.00;;;1.90;;
69910;SDS011;63555;49.920;17.868;2024-02-14T11:10:23;5.72;;;2.72;;
69910;SDS011;63555;49.920;17.868;2024-02-14T11:15:23;4.90;;;2.40;;
69910;SDS011;63555;49.920;17.868;2024-02-14T11:20:31;4.82;;;2.33;;
69910;SDS011;63555;49.920;17.868;2024-02-14T11:25:33;6.35;;;2.63;;
69910;SDS011;63555;49.920;17.868;2024-02-14T11:30:34;3.92;;;2.15;;
69910;SDS011;63555;49.920;17.868;2024-02-14T11:35:35;3.67;;;1.63;;
69910;SDS011;63555;49.920;17.868;2024-02-14T11:40:38;7.43;;;1.90;;
69910;SDS011;63555;49.920;17.868;2024-02-14T11:45:39;3.97;;;1.70;;
69910;SDS011;63555;49.920;17.868;2024-02-14T11:50:42;4.75;;;1.70;;
69910;SDS011;63555;49.920;17.868;2024-02-14T11:55:45;5.23;;;1.70;;
69910;SDS011;63555;49.920;17.868;2024-02-14T12:00:48;5.10;;;2.05;;
69910;SDS011;63555;49.920;17.868;2024-02-14T12:05:49;6.70;;;1.60;;
69910;SDS011;63555;49.920;17.868;2024-02-14T12:10:51;5.90;;;1.75;;
69910;SDS011;63555;49.920;17.868;2024-02-14T12:15:51;5.75;;;1.90;;
69910;SDS011;63555;49.920;17.868;2024-02-14T12:20:52;5.13;;;1.92;;
69910;SDS011;63555;49.920;17.868;2024-02-14T12:26:03;4.60;;;1.60;;
69910;SDS011;63555;49.920;17.868;2024-02-14T12:31:07;4.63;;;1.92;;
69910;SDS011;63555;49.920;17.868;2024-02-14T12:36:07;7.07;;;1.53;;
69910;SDS011;63555;49.920;17.868;2024-02-14T12:41:08;5.23;;;1.57;;
69910;SDS011;63555;49.920;17.868;2024-02-14T12:46:08;4.93;;;1.30;;
69910;SDS011;63555;49.920;17.868;2024-02-14T12:51:09;4.78;;;1.30;;
69910;SDS011;63555;49.920;17.868;2024-02-14T12:56:10;3.85;;;1.73;;
69910;SDS011;63555;49.920;17.868;2024-02-14T13:01:10;6.27;;;1.70;;
69910;SDS011;63555;49.920;17.868;2024-02-14T13:06:12;5.93;;;2.10;;
69910;SDS011;63555;49.920;17.868;2024-02-14T13:11:14;5.13;;;1.70;;
69910;SDS011;63555;49.920;17.868;2024-02-14T13:16:14;4.53;;;1.83;;
69910;SDS011;63555;49.920;17.868;2024-02-14T13:21:15;5.47;;;1.80;;
69910;SDS011;63555;49.920;17.868;2024-02-14T13:26:16;4.50;;;1.63;;
69910;SDS011;63555;49.920;17.868;2024-02-14T13:31:17;4.13;;;1.77;;
69910;SDS011;63555;49.920;17.868;2024-02-14T13:36:18;3.87;;;1.60;;
69910;SDS011;63555;49.920;17.868;2024-02-14T13:41:19;5.23;;;1.77;;
69910;SDS011;63555;49.920;17.868;2024-02-14T13:46:19;6.18;;;1.67;;
69910;SDS011;63555;49.920;17.868;2024-02-14T13:51:20;5.95;;;1.90;;
69910;SDS011;63555;49.920;17.868;2024-02-14T13:56:20;7.07;;;2.10;;
69910;SDS011;63555;49.920;17.868;2024-02-14T14:01:22;4.78;;;1.83;;
69910;SDS011;63555;49.920;17.868;2024-02-14T14:06:23;4.70;;;1.90;;
69910;SDS011;63555;49.920;17.868;2024-02-14T14:11:24;6.88;;;2.17;;
69910;SDS011;63555;49.920;17.868;2024-02-14T14:16:24;5.27;;;2.10;;
69910;SDS011;63555;49.920;17.868;2024-02-14T14:21:25;7.13;;;2.00;;
69910;SDS011;63555;49.920;17.868;2024-02-14T14:26:25;7.27;;;2.07;;
69910;SDS011;63555;49.920;17.868;2024-02-14T14:31:26;6.53;;;2.27;;
69910;SDS011;63555;49.920;17.868;2024-02-14T14:36:26;5.63;;;1.90;;
69910;SDS011;63555;49.920;17.868;2024-02-14T14:41:27;5.70;;;1.83;;
69910;SDS011;63555;49.920;17.868;2024-02-14T14:46:28;4.68;;;2.08;;
69910;SDS011;63555;49.920;17.868;2024-02-14T14:51:30;7.23;;;2.60;;
69910;SDS011;63555;49.920;17.868;2024-02-14T14:56:31;6.17;;;2.63;;
69910;SDS011;63555;49.920;17.868;2024-02-14T15:01:34;5.73;;;3.00;;
69910;SDS011;63555;49.920;17.868;2024-02-14T15:06:35;6.90;;;2.83;;
69910;SDS011;63555;49.920;17.868;2024-02-14T15:11:35;11.53;;;3.90;;
69910;SDS011;63555;49.920;17.868;2024-02-14T15:16:36;8.03;;;3.97;;
69910;SDS011;63555;49.920;17.868;2024-02-14T15:21:36;10.60;;;4.90;;
69910;SDS011;63555;49.920;17.868;2024-02-14T15:26:37;9.63;;;4.43;;
69910;SDS011;63555;49.920;17.868;2024-02-14T15:31:49;11.68;;;3.83;;
69910;SDS011;63555;49.920;17.868;2024-02-14T15:37:08;9.13;;;3.67;;
69910;SDS011;63555;49.920;17.868;2024-02-14T15:42:08;9.03;;;3.73;;
69910;SDS011;63555;49.920;17.868;2024-02-14T15:47:10;9.25;;;4.10;;
69910;SDS011;63555;49.920;17.868;2024-02-14T15:52:10;6.73;;;3.53;;
69910;SDS011;63555;49.920;17.868;2024-02-14T15:57:13;9.37;;;4.43;;
69910;SDS011;63555;49.920;17.868;2024-02-14T16:02:13;19.73;;;9.13;;
69910;SDS011;63555;49.920;17.868;2024-02-14T16:07:13;9.87;;;5.50;;
69910;SDS011;63555;49.920;17.868;2024-02-14T16:12:14;24.60;;;8.00;;
69910;SDS011;63555;49.920;17.868;2024-02-14T16:17:14;13.40;;;5.88;;
69910;SDS011;63555;49.920;17.868;2024-02-14T16:22:15;16.40;;;5.13;;
69910;SDS011;63555;49.920;17.868;2024-02-14T16:27:15;12.50;;;5.00;;
69910;SDS011;63555;49.920;17.868;2024-02-14T16:32:17;10.10;;;4.28;;
69910;SDS011;63555;49.920;17.868;2024-02-14T16:37:18;12.07;;;4.53;;
69910;SDS011;63555;49.920;17.868;2024-02-14T16:42:19;18.95;;;7.90;;
69910;SDS011;63555;49.920;17.868;2024-02-14T16:47:19;10.53;;;4.47;;
69910;SDS011;63555;49.920;17.868;2024-02-14T16:52:20;6.80;;;3.10;;
69910;SDS011;63555;49.920;17.868;2024-02-14T16:57:20;8.97;;;4.57;;
69910;SDS011;63555;49.920;17.868;2024-02-14T17:02:20;17.77;;;7.00;;
69910;SDS011;63555;49.920;17.868;2024-02-14T17:07:21;13.00;;;5.70;;
69910;SDS011;63555;49.920;17.868;2024-02-14T17:12:21;13.97;;;6.17;;
69910;SDS011;63555;49.920;17.868;2024-02-14T17:17:22;26.00;;;10.13;;
69910;SDS011;63555;49.920;17.868;2024-02-14T17:22:23;20.07;;;7.43;;
69910;SDS011;63555;49.920;17.868;2024-02-14T17:27:23;15.90;;;6.33;;
69910;SDS011;63555;49.920;17.868;2024-02-14T17:32:24;8.87;;;4.53;;
69910;SDS011;63555;49.920;17.868;2024-02-14T17:37:25;13.63;;;6.57;;
69910;SDS011;63555;49.920;17.868;2024-02-14T17:42:25;15.63;;;4.20;;
69910;SDS011;63555;49.920;17.868;2024-02-14T17:47:26;12.40;;;5.57;;
69910;SDS011;63555;49.920;17.868;2024-02-14T17:52:28;16.42;;;6.78;;
69910;SDS011;63555;49.920;17.868;2024-02-14T17:57:28;12.13;;;5.27;;
69910;SDS011;63555;49.920;17.868;2024-02-14T18:02:29;12.60;;;5.93;;
69910;SDS011;63555;49.920;17.868;2024-02-14T18:07:29;8.67;;;4.37;;
69910;SDS011;63555;49.920;17.868;2024-02-14T18:12:29;11.40;;;4.80;;
69910;SDS011;63555;49.920;17.868;2024-02-14T18:17:30;12.83;;;5.50;;
69910;SDS011;63555;49.920;17.868;2024-02-14T18:22:30;12.13;;;4.80;;
69910;SDS011;63555;49.920;17.868;2024-02-14T18:27:31;10.73;;;5.20;;
69910;SDS011;63555;49.920;17.868;2024-02-14T18:32:31;17.35;;;7.60;;
69910;SDS011;63555;49.920;17.868;2024-02-14T18:37:32;15.10;;;6.50;;
69910;SDS011;63555;49.920;17.868;2024-02-14T18:42:33;15.37;;;6.77;;
69910;SDS011;63555;49.920;17.868;2024-02-14T18:47:34;13.77;;;6.72;;
69910;SDS011;63555;49.920;17.868;2024-02-14T18:52:34;14.57;;;5.57;;
69910;SDS011;63555;49.920;17.868;2024-02-14T18:57:35;14.73;;;8.60;;
69910;SDS011;63555;49.920;17.868;2024-02-14T19:02:36;13.93;;;7.10;;
69910;SDS011;63555;49.920;17.868;2024-02-14T19:07:37;17.92;;;7.05;;
69910;SDS011;63555;49.920;17.868;2024-02-14T19:12:38;18.33;;;6.78;;
69910;SDS011;63555;49.920;17.868;2024-02-14T19:17:39;26.53;;;9.57;;
69910;SDS011;63555;49.920;17.868;2024-02-14T19:22:40;48.40;;;21.13;;
69910;SDS011;63555;49.920;17.868;2024-02-14T19:27:40;19.63;;;9.77;;
69910;SDS011;63555;49.920;17.868;2024-02-14T19:32:41;12.07;;;4.97;;
69910;SDS011;63555;49.920;17.868;2024-02-14T19:37:41;12.50;;;4.60;;
69910;SDS011;63555;49.920;17.868;2024-02-14T19:42:41;12.27;;;4.70;;
69910;SDS011;63555;49.920;17.868;2024-02-14T19:47:42;12.67;;;4.93;;
69910;SDS011;63555;49.920;17.868;2024-02-14T19:52:42;9.37;;;4.97;;
69910;SDS011;63555;49.920;17.868;2024-02-14T19:57:43;24.67;;;10.77;;
69910;SDS011;63555;49.920;17.868;2024-02-14T20:02:43;14.70;;;7.00;;
69910;SDS011;63555;49.920;17.868;2024-02-14T20:07:44;10.90;;;5.20;;
69910;SDS011;63555;49.920;17.868;2024-02-14T20:12:45;10.18;;;4.85;;
69910;SDS011;63555;49.920;17.868;2024-02-14T20:17:45;8.63;;;4.60;;
69910;SDS011;63555;49.920;17.868;2024-02-14T20:22:48;8.03;;;3.93;;
69910;SDS011;63555;49.920;17.868;2024-02-14T20:27:50;10.30;;;4.07;;
69910;SDS011;63555;49.920;17.868;2024-02-14T20:32:50;10.13;;;4.77;;
69910;SDS011;63555;49.920;17.868;2024-02-14T20:37:51;9.87;;;4.07;;
69910;SDS011;63555;49.920;17.868;2024-02-14T20:42:51;8.93;;;4.10;;
69910;SDS011;63555;49.920;17.868;2024-02-14T20:47:52;10.87;;;4.30;;
69910;SDS011;63555;49.920;17.868;2024-02-14T20:52:52;11.60;;;3.83;;
69910;SDS011;63555;49.920;17.868;2024-02-14T20:57:52;8.50;;;4.10;;
69910;SDS011;63555;49.920;17.868;2024-02-14T21:02:54;12.13;;;4.10;;
69910;SDS011;63555;49.920;17.868;2024-02-14T21:07:54;9.23;;;4.00;;
69910;SDS011;63555;49.920;17.868;2024-02-14T21:12:55;7.13;;;3.40;;
69910;SDS011;63555;49.920;17.868;2024-02-14T21:17:55;8.37;;;4.10;;
69910;SDS011;63555;49.920;17.868;2024-02-14T21:22:56;8.97;;;4.17;;
69910;SDS011;63555;49.920;17.868;2024-02-14T21:27:56;7.70;;;3.53;;
69910;SDS011;63555;49.920;17.868;2024-02-14T21:32:57;7.82;;;3.58;;
69910;SDS011;63555;49.920;17.868;2024-02-14T21:37:57;8.53;;;3.40;;
69910;SDS011;63555;49.920;17.868;2024-02-14T21:42:58;6.80;;;3.37;;
69910;SDS011;63555;49.920;17.868;2024-02-14T21:47:58;10.47;;;3.67;;
69910;SDS011;63555;49.920;17.868;2024-02-14T21:53:02;11.00;;;3.90;;
69910;SDS011;63555;49.920;17.868;2024-02-14T21:58:03;6.85;;;3.50;;
69910;SDS011;63555;49.920;17.868;2024-02-14T22:03:04;8.40;;;3.60;;
69910;SDS011;63555;49.920;17.868;2024-02-14T22:08:05;8.25;;;4.03;;
69910;SDS011;63555;49.920;17.868;2024-02-14T22:13:06;8.10;;;3.50;;
69910;SDS011;63555;49.920;17.868;2024-02-14T22:18:07;10.80;;;4.00;;
69910;SDS011;63555;49.920;17.868;2024-02-14T22:23:08;9.80;;;4.20;;
69910;SDS011;63555;49.920;17.868;2024-02-14T22:28:09;8.23;;;4.00;;
69910;SDS011;63555;49.920;17.868;2024-02-14T22:33:09;7.53;;;4.10;;
69910;SDS011;63555;49.920;17.868;2024-02-14T22:38:10;10.70;;;4.33;;
69910;SDS011;63555;49.920;17.868;2024-02-14T22:43:10;9.93;;;3.63;;
69910;SDS011;63555;49.920;17.868;2024-02-14T22:48:11;8.37;;;3.97;;
69910;SDS011;63555;49.920;17.868;2024-02-14T22:53:11;9.10;;;4.57;;
69910;SDS011;63555;49.920;17.868;2024-02-14T22:58:13;7.40;;;3.92;;
69910;SDS011;63555;49.920;17.868;2024-02-14T23:03:13;9.27;;;3.90;;
69910;SDS011;63555;49.920;17.868;2024-02-14T23:08:14;12.13;;;4.10;;
69910;SDS011;63555;49.920;17.868;2024-02-14T23:13:16;9.55;;;4.32;;
69910;SDS011;63555;49.920;17.868;2024-02-14T23:18:17;9.00;;;4.57;;
69910;SDS011;63555;49.920;17.868;2024-02-14T23:23:18;9.63;;;3.85;;
69910;SDS011;63555;49.920;17.868;2024-02-14T23:28:18;7.67;;;4.13;;
69910;SDS011;63555;49.920;17.868;2024-02-14T23:33:19;8.37;;;4.23;;
69910;SDS011;63555;49.920;17.868;2024-02-14T23:38:19;10.87;;;4.73;;
69910;SDS011;63555;49.920;17.868;2024-02-14T23:43:20;15.33;;;4.83;;
69910;SDS011;63555;49.920;17.868;2024-02-14T23:48:20;9.85;;;4.80;;
69910;SDS011;63555;49.920;17.868;2024-02-14T23:53:23;9.53;;;4.33;;
69910;SDS011;63555;49.920;17.868;2024-02-14T23:58:23;13.90;;;5.50;;
